This is the latest recevied weather packets stored in our database for station/object MARKET. If no packets are shown the sender has not sent any weather packets the latest 10 day(s).
| Time | Temp. | Humidity | Pressure | Rain* | Wind** | Luminosity | Snow |
|---|---|---|---|---|---|---|---|
| 1777770432 | 5.56° C | 90% | 1008.2 hPa | - | - | - | - |
| 1777769232 | 5.56° C | 91% | 1008.1 hPa | - | - | - | - |
| 1777768032 | 6.11° C | 87% | 1007.8 hPa | - | - | - | - |
| 1777766832 | 6.67° C | 85% | 1007.7 hPa | - | - | - | - |
| 1777765632 | 7.22° C | 79% | 1007.6 hPa | - | - | - | - |
| 1777764431 | 6.67° C | 80% | 1007.8 hPa | - | - | - | - |
| 1777763231 | 7.22° C | 76% | 1007.4 hPa | - | - | - | - |
| 1777762032 | 7.22° C | 75% | 1007.4 hPa | - | - | - | - |
| 1777760832 | 6.11° C | 84% | 1007.4 hPa | - | - | - | - |
| 1777759632 | 6.67° C | 81% | 1007.4 hPa | - | - | - | - |
| 1777758431 | 7.22° C | 80% | 1007.2 hPa | - | - | - | - |
| 1777757230 | 6.67° C | 82% | 1007 hPa | - | - | - | - |
| 1777756031 | 7.78° C | 77% | 1006.9 hPa | - | - | - | - |
| 1777754832 | 7.78° C | 77% | 1006.7 hPa | - | - | - | - |
| 1777753630 | 8.33° C | 73% | 1006.7 hPa | - | - | - | - |
| 1777752431 | 9.44° C | 64% | 1006.4 hPa | - | - | - | - |
| 1777751230 | 10.56° C | 58% | 1006.1 hPa | - | - | - | - |
| 1777750031 | 10.56° C | 60% | 1006.2 hPa | - | - | - | - |
| 1777748830 | 11.67° C | 56% | 1005.9 hPa | - | - | - | - |
| 1777747630 | 17.78° C | 35% | 1005.6 hPa | - | - | - | - |
| 1777746430 | 18.33° C | 35% | 1005.6 hPa | - | - | - | - |
| 1777745230 | 15.56° C | 41% | 1005.6 hPa | - | - | - | - |
| 1777744030 | 16.11° C | 41% | 1005.7 hPa | - | - | - | - |
| 1777742830 | 15.56° C | 43% | 1005.8 hPa | - | - | - | - |
| 1777741629 | 12.22° C | 55% | 1005.9 hPa | - | - | - | - |
* Rain since midnight (hover to see other rain measurements)
** Current wind speed in m/s (hover to see current wind gust speed)